Portada
METAR-TAF:

METAR-TAF

Aeropuertos :

Aeropuerto de Sanikiluaq

Sanikiluaq, Nunavut, Canadá

latitud: 56-32N, longitud: 079-15W, altitud: 32 m

Observación

El informe se hizo hace 3 horas y 21 minutos, a las 22:00 UTC
Viento 13 kt del sur con ráfagas de 18 kt
Temperatura 5°C
Humedad 75%
Presión 1026 hPa
Visibilidad: 24.1 km
Nubes dispersas a una altura de 1500 ft
Cielo nuboso a una altura de 21000 ft

METAR: CYSK 242200Z 17013G18KT 15SM SCT015 BKN210 05/01 A3030 RMK SC3CS3 LAST OBS/NEXT 251200UTC SLP263

Hora: 21:21 (01:21 UTC)


TAF: falta

Observaciones y pronósticos meteorológicos de más de 4000 aeropuertos (mensajes METAR y TAF).

Los puntos amarillos y rojos representan las estaciones disponibles.

Ponga el ratón en el punto deseado para ver el nombre de la estación.

Haga clic para ver las observaciones y los pronósticos meteorológicos.

Para cambiar el mapa : haga clic en los botones verdes con una cruz de color negro para hacer un zoom, en el botón verde con un guión para alejar o en las flechas verdes para mapas adyacentes.


METAR-TAF: